createdAt,value
2023-02-04T00:01:36.920Z,2.50
2023-02-04T00:04:04.117Z,2.38
2023-02-04T00:06:31.296Z,2.58
2023-02-04T00:08:58.466Z,1.88
2023-02-04T00:11:25.633Z,2.00
2023-02-04T00:13:52.839Z,2.00
2023-02-04T00:16:20.093Z,1.98
2023-02-04T00:18:47.350Z,2.53
2023-02-04T00:21:14.630Z,2.50
2023-02-04T00:23:42.075Z,2.03
2023-02-04T00:26:09.379Z,1.95
2023-02-04T00:28:36.546Z,1.60
2023-02-04T00:31:03.770Z,1.83
2023-02-04T00:33:30.996Z,1.73
2023-02-04T00:35:58.180Z,1.70
2023-02-04T00:38:25.379Z,2.03
2023-02-04T00:40:52.547Z,1.80
2023-02-04T00:43:19.879Z,2.17
2023-02-04T00:45:47.102Z,1.90
2023-02-04T00:48:14.240Z,1.80
2023-02-04T00:50:41.416Z,2.33
2023-02-04T00:53:08.715Z,1.60
2023-02-04T00:55:35.949Z,2.03
2023-02-04T00:58:03.084Z,3.53
2023-02-04T01:00:30.728Z,1.70
2023-02-04T01:02:58.114Z,1.90
2023-02-04T01:05:25.795Z,2.42
2023-02-04T01:07:53.370Z,1.67
2023-02-04T01:10:20.563Z,1.80
2023-02-04T01:12:47.836Z,2.03
2023-02-04T01:15:15.356Z,1.80
2023-02-04T01:17:42.525Z,2.08
2023-02-04T01:20:10.389Z,2.15
2023-02-04T01:22:37.646Z,1.40
2023-02-04T01:25:04.985Z,2.25
2023-02-04T01:27:32.155Z,2.30
2023-02-04T01:29:59.368Z,1.70
2023-02-04T01:32:26.558Z,2.47
2023-02-04T01:34:53.985Z,2.20
2023-02-04T01:37:21.803Z,1.65
2023-02-04T01:39:48.897Z,2.08
2023-02-04T01:42:16.166Z,2.15
2023-02-04T01:44:43.516Z,3.20
2023-02-04T01:47:10.704Z,2.20
2023-02-04T01:49:37.955Z,2.42
2023-02-04T01:52:05.373Z,2.10
2023-02-04T01:54:32.782Z,1.98
2023-02-04T01:56:59.977Z,2.28
2023-02-04T01:59:27.559Z,2.13
2023-02-04T02:01:54.940Z,2.30
2023-02-04T02:04:30.557Z,1.88
2023-02-04T02:07:03.373Z,2.00
2023-02-04T02:09:31.566Z,2.00
2023-02-04T02:11:59.153Z,2.17
2023-02-04T02:14:26.385Z,2.03
2023-02-04T02:16:53.697Z,3.63
2023-02-04T02:19:24.905Z,1.70
2023-02-04T02:22:03.769Z,1.98
2023-02-04T02:24:32.420Z,2.17
2023-02-04T02:27:02.042Z,1.70
2023-02-04T02:29:29.443Z,2.33
2023-02-04T02:32:00.337Z,1.85
2023-02-04T02:34:28.611Z,2.15
2023-02-04T02:36:56.398Z,2.17
2023-02-04T02:39:23.631Z,2.67
2023-02-04T02:41:50.912Z,0.90
2023-02-04T02:44:18.783Z,0.45
2023-02-04T02:46:46.687Z,0.35
2023-02-04T02:49:18.251Z,0.45
2023-02-04T02:51:48.056Z,0.45
2023-02-04T02:54:25.454Z,0.70
2023-02-04T02:56:52.790Z,0.70
2023-02-04T02:59:20.626Z,0.50
2023-02-04T03:01:49.855Z,0.50
2023-02-04T03:04:18.026Z,0.60
2023-02-04T03:06:45.458Z,0.88
2023-02-04T03:09:13.614Z,0.93
2023-02-04T03:11:40.790Z,0.93
2023-02-04T03:14:08.165Z,0.88
2023-02-04T03:16:37.104Z,1.13
2023-02-04T03:19:05.382Z,0.77
2023-02-04T03:21:32.598Z,1.10
2023-02-04T03:23:59.932Z,0.90
2023-02-04T03:26:27.660Z,1.15
2023-02-04T03:28:55.494Z,0.90
2023-02-04T03:31:22.800Z,1.17
2023-02-04T03:33:50.192Z,1.40
2023-02-04T03:36:17.477Z,1.30
2023-02-04T03:38:44.846Z,1.48
2023-02-04T03:41:12.106Z,1.30
2023-02-04T03:43:39.359Z,1.60
2023-02-04T03:46:06.566Z,1.48
2023-02-04T03:48:33.803Z,1.75
2023-02-04T03:51:00.977Z,1.38
2023-02-04T03:53:28.167Z,2.13
2023-02-04T03:55:55.529Z,1.80
2023-02-04T03:58:22.998Z,2.00
2023-02-04T04:00:50.203Z,2.03
2023-02-04T04:03:17.552Z,2.42
2023-02-04T04:05:44.754Z,1.90
2023-02-04T04:08:12.007Z,2.47
2023-02-04T04:10:41.149Z,2.10
2023-02-04T04:13:09.135Z,2.10
2023-02-04T04:15:36.516Z,2.30
2023-02-04T04:18:04.996Z,1.95
2023-02-04T04:20:32.540Z,2.10
2023-02-04T04:22:59.909Z,2.10
2023-02-04T04:25:27.202Z,1.95
2023-02-04T04:27:54.365Z,2.33
2023-02-04T04:30:21.584Z,2.25
2023-02-04T04:32:48.698Z,1.88
2023-02-04T04:35:15.931Z,2.30
2023-02-04T04:37:45.826Z,2.13
2023-02-04T04:40:13.536Z,3.53
2023-02-04T04:42:40.733Z,2.15
2023-02-04T04:45:09.194Z,2.20
2023-02-04T04:47:36.329Z,1.80
2023-02-04T04:50:04.194Z,2.15
2023-02-04T04:52:31.316Z,2.05
2023-02-04T04:54:58.490Z,2.33
2023-02-04T04:57:25.592Z,1.80
2023-02-04T04:59:52.756Z,2.00
2023-02-04T05:02:19.875Z,1.70
2023-02-04T05:04:47.218Z,1.67
2023-02-04T05:07:14.392Z,1.38
2023-02-04T05:09:41.898Z,1.70
2023-02-04T05:12:09.095Z,1.90
2023-02-04T05:14:36.475Z,1.67
2023-02-04T05:17:03.784Z,1.23
2023-02-04T05:19:30.939Z,1.77
2023-02-04T05:21:58.078Z,1.38
2023-02-04T05:24:25.213Z,1.40
2023-02-04T05:26:52.375Z,1.52
2023-02-04T05:29:19.488Z,2.03
2023-02-04T05:31:46.697Z,1.73
2023-02-04T05:34:13.836Z,1.50
2023-02-04T05:36:40.956Z,1.50
2023-02-04T05:39:08.077Z,1.42
2023-02-04T05:41:35.279Z,1.42
2023-02-04T05:44:02.433Z,1.58
2023-02-04T05:46:29.600Z,1.58
2023-02-04T05:48:56.843Z,1.60
2023-02-04T05:51:24.088Z,1.60
2023-02-04T05:53:51.366Z,1.75
2023-02-04T05:56:18.562Z,1.70
2023-02-04T05:58:45.875Z,1.60
2023-02-04T06:01:12.999Z,1.73
2023-02-04T06:03:40.345Z,1.65
2023-02-04T06:06:07.617Z,1.88
2023-02-04T06:08:34.957Z,9.02
2023-02-04T06:11:02.232Z,10.70
2023-02-04T06:13:29.393Z,5.07
2023-02-04T06:15:56.580Z,8.75
2023-02-04T06:18:23.699Z,3.35
2023-02-04T06:20:50.903Z,2.10
2023-02-04T06:23:18.056Z,2.67
2023-02-04T06:25:45.347Z,3.33
2023-02-04T06:28:12.529Z,2.30
2023-02-04T06:30:39.769Z,5.00
2023-02-04T06:33:06.945Z,2.88
2023-02-04T06:35:34.078Z,2.60
2023-02-04T06:38:01.684Z,2.08
2023-02-04T06:40:28.819Z,2.20
2023-02-04T06:42:55.940Z,1.70
2023-02-04T06:45:23.155Z,2.22
2023-02-04T06:47:50.274Z,1.77
2023-02-04T06:50:18.883Z,2.17
2023-02-04T06:52:49.175Z,1.90
2023-02-04T06:55:17.210Z,1.67
2023-02-04T06:57:44.408Z,2.47
2023-02-04T07:00:12.527Z,1.80
2023-02-04T07:02:39.976Z,1.50
2023-02-04T07:05:07.373Z,1.55
2023-02-04T07:07:34.612Z,1.58
2023-02-04T07:10:01.759Z,1.40
2023-02-04T07:12:28.968Z,1.20
2023-02-04T07:14:56.192Z,1.77
2023-02-04T07:17:23.864Z,2.80
2023-02-04T07:19:50.955Z,1.33
2023-02-04T07:22:18.088Z,2.58
2023-02-04T07:24:45.228Z,4.38
2023-02-04T07:27:12.633Z,1.30
2023-02-04T07:29:40.013Z,1.58
2023-02-04T07:32:07.313Z,2.20
2023-02-04T07:34:34.457Z,2.53
2023-02-04T07:37:01.681Z,2.65
2023-02-04T07:39:29.207Z,2.00
2023-02-04T07:41:56.374Z,1.92
2023-02-04T07:44:23.518Z,4.70
2023-02-04T07:46:50.678Z,2.13
2023-02-04T07:49:17.813Z,2.50
2023-02-04T07:51:45.032Z,1.73
2023-02-04T07:54:12.247Z,1.60
2023-02-04T07:56:42.062Z,1.30
2023-02-04T07:59:09.267Z,2.20
2023-02-04T08:01:36.736Z,1.40
2023-02-04T08:04:04.084Z,1.63
2023-02-04T08:06:31.215Z,0.98
2023-02-04T08:08:58.384Z,1.80
2023-02-04T08:11:27.144Z,1.40
2023-02-04T08:13:54.339Z,1.17
2023-02-04T08:16:21.563Z,1.40
2023-02-04T08:18:48.701Z,1.15
2023-02-04T08:21:15.877Z,1.80
2023-02-04T08:23:43.006Z,2.08
2023-02-04T08:26:11.391Z,3.17
2023-02-04T08:28:39.230Z,7.60
2023-02-04T08:31:07.374Z,11.70
2023-02-04T08:33:34.578Z,3.00
2023-02-04T08:36:01.806Z,2.00
2023-02-04T08:38:29.156Z,2.00
2023-02-04T08:40:56.581Z,1.50
2023-02-04T08:43:23.710Z,1.60
2023-02-04T08:45:50.884Z,1.70
2023-02-04T08:48:18.067Z,1.63
2023-02-04T08:50:45.284Z,1.90
2023-02-04T08:53:12.543Z,2.13
2023-02-04T08:55:39.906Z,1.80
2023-02-04T08:58:07.136Z,1.67
2023-02-04T09:00:37.058Z,1.70
2023-02-04T09:03:04.245Z,2.22
2023-02-04T09:05:31.394Z,2.40
2023-02-04T09:07:58.536Z,2.35
2023-02-04T09:10:25.739Z,2.05
2023-02-04T09:12:56.211Z,1.77
2023-02-04T09:15:26.773Z,2.17
2023-02-04T09:17:55.830Z,2.50
2023-02-04T09:20:23.251Z,2.70
2023-02-04T09:22:50.782Z,2.90
2023-02-04T09:25:17.964Z,2.97
2023-02-04T09:27:45.150Z,2.40
2023-02-04T09:30:12.710Z,3.60
2023-02-04T09:32:39.908Z,2.40
2023-02-04T09:35:07.684Z,1.85
2023-02-04T09:37:34.886Z,2.05
2023-02-04T09:40:02.008Z,1.80
2023-02-04T09:42:29.645Z,1.65
2023-02-04T09:44:56.835Z,1.10
2023-02-04T09:47:25.866Z,1.10
2023-02-04T09:49:53.300Z,1.30
2023-02-04T09:52:20.603Z,1.45
2023-02-04T09:54:48.155Z,1.20
2023-02-04T09:57:19.910Z,1.00
2023-02-04T09:59:47.524Z,2.60
2023-02-04T10:02:22.697Z,2.63
2023-02-04T10:04:50.318Z,1.38
2023-02-04T10:07:22.146Z,1.30
2023-02-04T10:09:50.301Z,1.05
2023-02-04T10:12:17.895Z,0.68
2023-02-04T10:14:45.241Z,2.28
2023-02-04T10:17:20.554Z,5.13
2023-02-04T10:19:47.858Z,4.68
2023-02-04T10:22:19.125Z,4.18
2023-02-04T10:24:46.379Z,2.40
2023-02-04T10:27:17.296Z,1.00
2023-02-04T10:29:56.104Z,13.10
2023-02-04T10:32:27.809Z,0.70
2023-02-04T10:34:59.043Z,0.50
2023-02-04T10:37:26.340Z,0.50
2023-02-04T10:39:53.695Z,0.50
2023-02-04T10:42:30.980Z,0.55
2023-02-04T10:44:58.746Z,0.93
2023-02-04T10:47:27.255Z,0.73
2023-02-04T10:49:55.465Z,0.50
2023-02-04T10:52:25.343Z,0.77
2023-02-04T10:54:52.646Z,0.73
2023-02-04T10:57:27.878Z,1.25
2023-02-04T10:59:56.360Z,1.15
2023-02-04T11:02:43.119Z,1.42
2023-02-04T11:05:15.810Z,0.80
2023-02-04T11:07:43.243Z,0.47
2023-02-04T11:10:17.982Z,0.63
2023-02-04T11:13:00.762Z,0.50
2023-02-04T11:15:50.384Z,0.60
2023-02-04T11:18:20.689Z,0.30
2023-02-04T11:20:51.759Z,0.60
2023-02-04T11:23:18.864Z,1.17
2023-02-04T11:25:46.286Z,0.82
2023-02-04T11:28:24.962Z,0.47
2023-02-04T11:31:04.418Z,0.98
2023-02-04T11:33:39.040Z,0.60
2023-02-04T11:36:07.328Z,2.83
2023-02-04T11:38:34.669Z,3.55
2023-02-04T11:41:02.289Z,5.28
2023-02-04T11:43:33.749Z,1.00
2023-02-04T11:46:02.283Z,13.73
2023-02-04T11:48:29.528Z,1.83
2023-02-04T11:50:57.705Z,1.98
2023-02-04T11:53:28.059Z,2.30
2023-02-04T11:55:55.310Z,0.60
2023-02-04T11:58:26.025Z,1.15
2023-02-04T12:00:53.805Z,1.58
2023-02-04T12:03:31.545Z,0.80
2023-02-04T12:05:59.861Z,0.82
2023-02-04T12:08:34.110Z,0.77
2023-02-04T12:11:11.313Z,0.80
2023-02-04T12:13:52.274Z,0.60
2023-02-04T12:16:19.816Z,1.08
2023-02-04T12:18:47.037Z,0.68
2023-02-04T12:21:17.049Z,1.02
2023-02-04T12:23:44.169Z,1.23
2023-02-04T12:26:12.266Z,0.80
2023-02-04T12:28:39.540Z,8.45
2023-02-04T12:31:06.806Z,1.85
2023-02-04T12:33:34.026Z,0.80
2023-02-04T12:36:02.465Z,0.90
2023-02-04T12:38:29.595Z,1.13
2023-02-04T12:40:57.126Z,16.63
2023-02-04T12:43:27.847Z,1.80
2023-02-04T12:45:55.423Z,0.95
2023-02-04T12:48:22.666Z,1.45
2023-02-04T12:50:49.862Z,1.30
2023-02-04T12:53:17.148Z,1.25
2023-02-04T12:55:44.509Z,1.05
2023-02-04T12:58:11.684Z,1.30
2023-02-04T13:00:39.003Z,1.20
2023-02-04T13:03:06.532Z,1.13
2023-02-04T13:05:35.932Z,1.10
2023-02-04T13:08:03.323Z,0.90
2023-02-04T13:10:30.694Z,1.15
2023-02-04T13:12:58.021Z,0.80
2023-02-04T13:15:25.211Z,0.68
2023-02-04T13:17:52.456Z,0.70
2023-02-04T13:20:19.713Z,1.40
2023-02-04T13:22:46.846Z,0.88
2023-02-04T13:25:14.808Z,0.73
2023-02-04T13:27:42.008Z,1.77
2023-02-04T13:30:09.888Z,0.70
2023-02-04T13:32:37.114Z,0.68
2023-02-04T13:35:04.394Z,0.45
2023-02-04T13:37:31.541Z,0.47
2023-02-04T13:39:58.669Z,0.32
2023-02-04T13:42:25.830Z,0.70
2023-02-04T13:44:54.307Z,0.77
2023-02-04T13:47:21.488Z,1.02
2023-02-04T13:49:48.995Z,0.40
2023-02-04T13:52:18.342Z,0.50
2023-02-04T13:54:46.098Z,0.50
2023-02-04T13:57:13.446Z,0.40
2023-02-04T13:59:40.620Z,0.50
2023-02-04T14:02:08.011Z,0.80
2023-02-04T14:04:36.881Z,0.57
2023-02-04T14:07:04.521Z,0.90
2023-02-04T14:09:31.697Z,0.70
2023-02-04T14:11:58.953Z,0.90
2023-02-04T14:14:26.249Z,0.50
2023-02-04T14:16:53.709Z,0.40
2023-02-04T14:19:20.954Z,0.30
2023-02-04T14:21:50.233Z,0.70
2023-02-04T14:24:17.442Z,0.50
2023-02-04T14:26:44.691Z,0.50
2023-02-04T14:29:13.271Z,0.50
2023-02-04T14:31:40.504Z,0.70
2023-02-04T14:34:07.848Z,0.98
2023-02-04T14:36:35.115Z,0.85
2023-02-04T14:39:02.601Z,0.50
2023-02-04T14:41:31.331Z,0.80
2023-02-04T14:43:58.815Z,0.60
2023-02-04T14:46:29.454Z,0.80
2023-02-04T14:48:56.780Z,0.93
2023-02-04T14:51:23.942Z,0.80
2023-02-04T14:53:51.106Z,0.70
2023-02-04T14:56:20.397Z,0.60
2023-02-04T14:58:47.656Z,0.80
2023-02-04T15:01:16.558Z,0.50
2023-02-04T15:03:44.462Z,0.95
2023-02-04T15:06:11.681Z,0.43
2023-02-04T15:08:38.991Z,0.57
2023-02-04T15:11:06.467Z,0.77
2023-02-04T15:13:34.113Z,0.50
2023-02-04T15:16:04.265Z,0.60
2023-02-04T15:18:33.297Z,0.80
2023-02-04T15:21:03.782Z,0.70
2023-02-04T15:23:30.904Z,0.80
2023-02-04T15:25:58.036Z,2.47
2023-02-04T15:28:26.830Z,1.20
2023-02-04T15:30:54.097Z,3.95
2023-02-04T15:33:21.314Z,2.90
2023-02-04T15:36:00.706Z,1.30
2023-02-04T15:38:28.598Z,0.60
2023-02-04T15:40:55.745Z,3.00
2023-02-04T15:43:23.228Z,2.00
2023-02-04T15:45:50.450Z,3.90
2023-02-04T15:48:19.601Z,3.50
2023-02-04T15:50:46.750Z,6.20
2023-02-04T15:53:13.924Z,4.05
2023-02-04T15:55:41.406Z,2.40
2023-02-04T15:58:08.545Z,1.83
2023-02-04T16:00:44.220Z,0.88
2023-02-04T16:03:15.772Z,0.80
2023-02-04T16:05:43.892Z,0.60
2023-02-04T16:08:13.180Z,0.90
2023-02-04T16:10:41.326Z,1.23
2023-02-04T16:13:08.905Z,1.00
2023-02-04T16:15:37.249Z,0.90
2023-02-04T16:18:05.577Z,1.00
2023-02-04T16:20:33.585Z,0.70
2023-02-04T16:23:02.273Z,0.60
2023-02-04T16:25:29.471Z,0.98
2023-02-04T16:27:58.115Z,0.90
2023-02-04T16:30:25.973Z,0.80
2023-02-04T16:32:54.007Z,5.40
2023-02-04T16:35:21.289Z,3.42
2023-02-04T16:37:48.494Z,4.20
2023-02-04T16:40:15.736Z,2.25
2023-02-04T16:42:42.892Z,2.03
2023-02-04T16:45:10.481Z,2.17
2023-02-04T16:47:37.726Z,1.70
2023-02-04T16:50:13.907Z,1.52
2023-02-04T16:52:42.852Z,1.30
2023-02-04T16:55:11.766Z,1.55
2023-02-04T16:57:43.937Z,1.75
2023-02-04T17:00:12.246Z,1.20
2023-02-04T17:02:39.662Z,0.90
2023-02-04T17:05:09.939Z,0.65
2023-02-04T17:07:37.128Z,3.03
2023-02-04T17:10:05.129Z,1.70
2023-02-04T17:12:32.728Z,2.47
2023-02-04T17:15:01.845Z,2.80
2023-02-04T17:17:29.109Z,5.28
2023-02-04T17:19:58.113Z,12.52
2023-02-04T17:22:43.660Z,9.38
2023-02-04T17:25:10.923Z,8.07
2023-02-04T17:27:38.546Z,4.20
2023-02-04T17:30:06.602Z,3.17
2023-02-04T17:32:36.605Z,3.95
2023-02-04T17:35:04.191Z,2.67
2023-02-04T17:37:31.646Z,3.47
2023-02-04T17:40:02.033Z,2.22
2023-02-04T17:42:32.520Z,2.88
2023-02-04T17:44:59.956Z,3.08
2023-02-04T17:47:30.834Z,5.05
2023-02-04T17:49:58.171Z,2.70
2023-02-04T17:52:26.709Z,2.08
2023-02-04T17:54:54.111Z,2.00
2023-02-04T17:57:22.398Z,2.00
2023-02-04T17:59:50.636Z,2.45
2023-02-04T18:02:23.109Z,2.28
2023-02-04T18:04:50.705Z,2.10
2023-02-04T18:07:17.895Z,2.10
2023-02-04T18:09:45.016Z,2.25
2023-02-04T18:12:16.716Z,3.30
2023-02-04T18:14:44.854Z,2.97
2023-02-04T18:17:13.289Z,3.25
2023-02-04T18:19:41.151Z,3.10
2023-02-04T18:22:13.241Z,3.10
2023-02-04T18:24:42.895Z,3.03
2023-02-04T18:27:19.463Z,3.00
2023-02-04T18:29:48.735Z,3.28
2023-02-04T18:32:19.395Z,3.03
2023-02-04T18:34:48.440Z,2.97
2023-02-04T18:37:25.030Z,3.20
2023-02-04T18:39:52.890Z,3.50
2023-02-04T18:42:23.430Z,3.63
2023-02-04T18:44:52.764Z,2.65
2023-02-04T18:47:39.877Z,2.85
2023-02-04T18:50:22.387Z,2.88
2023-02-04T18:52:50.118Z,3.20
2023-02-04T18:55:25.404Z,3.25
2023-02-04T18:57:52.684Z,2.90
2023-02-04T19:00:26.510Z,4.07
2023-02-04T19:03:01.659Z,3.42
2023-02-04T19:05:29.146Z,2.80
2023-02-04T19:08:05.988Z,2.85
2023-02-04T19:10:34.786Z,4.63
2023-02-04T19:13:22.332Z,3.92
2023-02-04T19:16:06.988Z,3.38
2023-02-04T19:18:37.829Z,3.40
2023-02-04T19:21:28.914Z,3.33
2023-02-04T19:24:00.641Z,2.80
2023-02-04T19:26:30.842Z,2.70
2023-02-04T19:28:58.516Z,3.28
2023-02-04T19:31:34.702Z,3.42
2023-02-04T19:34:17.383Z,3.55
2023-02-04T19:36:44.828Z,3.63
2023-02-04T19:39:21.133Z,3.72
2023-02-04T19:41:50.333Z,3.92
2023-02-04T19:44:20.685Z,4.65
2023-02-04T19:46:47.913Z,3.78
2023-02-04T19:49:25.802Z,2.53
2023-02-04T19:51:54.657Z,2.67
2023-02-04T19:54:25.069Z,5.75
2023-02-04T19:56:52.950Z,4.93
2023-02-04T19:59:30.696Z,3.00
2023-02-04T20:02:03.694Z,2.83
2023-02-04T20:04:35.816Z,2.30
2023-02-04T20:07:03.334Z,2.88
2023-02-04T20:09:31.066Z,2.30
2023-02-04T20:12:08.254Z,3.58
2023-02-04T20:14:35.401Z,3.67
2023-02-04T20:17:03.658Z,9.55
2023-02-04T20:19:30.781Z,9.52
2023-02-04T20:22:16.867Z,11.10
2023-02-04T20:24:46.278Z,9.77
2023-02-04T20:27:19.348Z,9.40
2023-02-04T20:32:26.168Z,9.85
2023-02-04T20:34:54.743Z,8.95
2023-02-04T20:37:27.493Z,5.50
2023-02-04T20:39:54.928Z,7.53
2023-02-04T20:42:27.631Z,7.45
2023-02-04T20:44:55.398Z,9.57
2023-02-04T20:47:26.693Z,7.85
2023-02-04T20:49:58.212Z,6.68
2023-02-04T20:52:37.911Z,5.70
2023-02-04T20:55:21.803Z,6.53
2023-02-04T20:57:49.306Z,6.70
2023-02-04T21:00:26.981Z,6.20
2023-02-04T21:02:54.518Z,5.88
2023-02-04T21:05:24.279Z,5.22
2023-02-04T21:07:51.397Z,6.18
2023-02-04T21:10:18.838Z,5.85
2023-02-04T21:12:46.589Z,6.20
2023-02-04T21:15:13.785Z,5.88
2023-02-04T21:17:41.253Z,5.97
2023-02-04T21:20:08.629Z,5.65
2023-02-04T21:22:35.735Z,5.72
2023-02-04T21:25:02.901Z,12.57
2023-02-04T21:27:30.002Z,9.35
2023-02-04T21:29:57.177Z,8.45
2023-02-04T21:32:25.812Z,6.97
2023-02-04T21:34:52.964Z,7.93
2023-02-04T21:37:20.139Z,6.25
2023-02-04T21:39:47.305Z,6.13
2023-02-04T21:42:14.464Z,5.90
2023-02-04T21:44:41.688Z,6.55
2023-02-04T21:47:08.914Z,5.60
2023-02-04T21:49:39.464Z,5.97
2023-02-04T21:52:07.417Z,5.40
2023-02-04T21:54:34.640Z,5.97
2023-02-04T21:57:04.311Z,6.32
2023-02-04T21:59:31.656Z,5.45
2023-02-04T22:01:58.859Z,8.32
2023-02-04T22:04:26.014Z,12.52
2023-02-04T22:06:53.219Z,12.90
2023-02-04T22:09:20.370Z,11.43
2023-02-04T22:11:48.660Z,9.32
2023-02-04T22:14:15.851Z,11.55
2023-02-04T22:16:43.162Z,8.07
2023-02-04T22:19:10.391Z,8.20
2023-02-04T22:21:38.160Z,8.23
2023-02-04T22:24:05.593Z,8.73
2023-02-04T22:26:32.753Z,7.45
2023-02-04T22:28:59.915Z,7.85
2023-02-04T22:31:27.222Z,7.72
2023-02-04T22:33:54.617Z,7.32
2023-02-04T22:36:21.754Z,6.78
2023-02-04T22:38:49.740Z,8.45
2023-02-04T22:41:17.037Z,8.88
2023-02-04T22:43:44.135Z,9.20
2023-02-04T22:46:11.741Z,11.27
2023-02-04T22:48:38.949Z,10.40
2023-02-04T22:51:06.092Z,10.15
2023-02-04T22:53:33.249Z,9.52
2023-02-04T22:56:00.429Z,8.98
2023-02-04T22:58:27.612Z,8.15
2023-02-04T23:00:54.806Z,8.50
2023-02-04T23:03:21.921Z,8.02
2023-02-04T23:05:49.235Z,8.23
2023-02-04T23:08:17.932Z,7.57
2023-02-04T23:10:45.994Z,8.40
2023-02-04T23:13:13.545Z,7.00
2023-02-04T23:15:40.707Z,8.02
2023-02-04T23:18:07.817Z,7.20
2023-02-04T23:20:35.253Z,7.10
2023-02-04T23:23:02.822Z,7.70
2023-02-04T23:25:29.949Z,7.22
2023-02-04T23:27:57.173Z,7.38
2023-02-04T23:30:24.674Z,6.50
2023-02-04T23:32:51.824Z,6.50
2023-02-04T23:35:19.013Z,6.85
2023-02-04T23:37:46.264Z,6.80
2023-02-04T23:40:13.429Z,6.55
2023-02-04T23:42:40.535Z,5.70
2023-02-04T23:45:07.862Z,6.47
2023-02-04T23:47:34.982Z,5.70
2023-02-04T23:50:02.192Z,6.97
2023-02-04T23:52:29.531Z,5.50
2023-02-04T23:54:56.682Z,5.53
2023-02-04T23:57:23.973Z,6.22
2023-02-04T23:59:51.181Z,5.93
